sensor_id;sensor_type;location;lat;lon;timestamp;temperature;humidity
15930;DHT22;8064;51.142;4.780;2023-12-22T00:01:29;10.40;99.90
15930;DHT22;8064;51.142;4.780;2023-12-22T00:03:54;10.40;99.90
15930;DHT22;8064;51.142;4.780;2023-12-22T00:06:20;10.40;99.90
15930;DHT22;8064;51.142;4.780;2023-12-22T00:08:46;10.40;99.90
15930;DHT22;8064;51.142;4.780;2023-12-22T00:11:12;10.40;99.90
15930;DHT22;8064;51.142;4.780;2023-12-22T00:13:38;10.40;99.90
15930;DHT22;8064;51.142;4.780;2023-12-22T00:16:04;10.40;99.90
15930;DHT22;8064;51.142;4.780;2023-12-22T00:18:29;10.40;99.90
15930;DHT22;8064;51.142;4.780;2023-12-22T00:20:56;10.40;99.90
15930;DHT22;8064;51.142;4.780;2023-12-22T00:23:22;10.40;99.90
15930;DHT22;8064;51.142;4.780;2023-12-22T00:25:47;10.40;99.90
15930;DHT22;8064;51.142;4.780;2023-12-22T00:28:13;10.40;99.90
15930;DHT22;8064;51.142;4.780;2023-12-22T00:30:39;10.40;99.90
15930;DHT22;8064;51.142;4.780;2023-12-22T00:33:05;10.40;99.90
15930;DHT22;8064;51.142;4.780;2023-12-22T00:35:30;10.40;99.90
15930;DHT22;8064;51.142;4.780;2023-12-22T00:37:57;10.40;99.90
15930;DHT22;8064;51.142;4.780;2023-12-22T00:40:22;10.40;99.90
15930;DHT22;8064;51.142;4.780;2023-12-22T00:42:48;10.40;99.90
15930;DHT22;8064;51.142;4.780;2023-12-22T00:45:14;10.40;99.90
15930;DHT22;8064;51.142;4.780;2023-12-22T00:47:40;10.40;99.90
15930;DHT22;8064;51.142;4.780;2023-12-22T00:50:06;10.40;99.90
15930;DHT22;8064;51.142;4.780;2023-12-22T00:52:33;10.40;99.90
15930;DHT22;8064;51.142;4.780;2023-12-22T00:54:59;10.50;99.90
15930;DHT22;8064;51.142;4.780;2023-12-22T00:57:25;10.50;99.90
15930;DHT22;8064;51.142;4.780;2023-12-22T00:59:51;10.50;99.90
15930;DHT22;8064;51.142;4.780;2023-12-22T01:02:17;10.50;99.90
15930;DHT22;8064;51.142;4.780;2023-12-22T01:04:43;10.50;99.90
15930;DHT22;8064;51.142;4.780;2023-12-22T01:07:10;10.50;99.90
15930;DHT22;8064;51.142;4.780;2023-12-22T01:09:36;10.50;99.90
15930;DHT22;8064;51.142;4.780;2023-12-22T01:12:04;10.50;99.90
15930;DHT22;8064;51.142;4.780;2023-12-22T01:14:30;10.50;99.90
15930;DHT22;8064;51.142;4.780;2023-12-22T01:16:56;10.50;99.90
15930;DHT22;8064;51.142;4.780;2023-12-22T01:19:22;10.50;99.90
15930;DHT22;8064;51.142;4.780;2023-12-22T01:21:48;10.50;99.90
15930;DHT22;8064;51.142;4.780;2023-12-22T01:24:15;10.50;99.90
15930;DHT22;8064;51.142;4.780;2023-12-22T01:26:40;10.50;99.90
15930;DHT22;8064;51.142;4.780;2023-12-22T01:29:06;10.50;99.90
15930;DHT22;8064;51.142;4.780;2023-12-22T01:31:32;10.50;99.90
15930;DHT22;8064;51.142;4.780;2023-12-22T01:33:58;10.50;99.90
15930;DHT22;8064;51.142;4.780;2023-12-22T01:36:23;10.50;99.90
15930;DHT22;8064;51.142;4.780;2023-12-22T01:38:49;10.50;99.90
15930;DHT22;8064;51.142;4.780;2023-12-22T01:41:15;10.50;99.90
15930;DHT22;8064;51.142;4.780;2023-12-22T01:43:41;10.50;99.90
15930;DHT22;8064;51.142;4.780;2023-12-22T01:46:07;10.50;99.90
15930;DHT22;8064;51.142;4.780;2023-12-22T01:48:35;10.50;99.90
15930;DHT22;8064;51.142;4.780;2023-12-22T01:51:01;10.50;99.90
15930;DHT22;8064;51.142;4.780;2023-12-22T01:53:28;10.50;99.90
15930;DHT22;8064;51.142;4.780;2023-12-22T01:55:55;10.50;99.90
15930;DHT22;8064;51.142;4.780;2023-12-22T01:58:23;10.50;99.90
15930;DHT22;8064;51.142;4.780;2023-12-22T02:00:49;10.50;99.90
15930;DHT22;8064;51.142;4.780;2023-12-22T02:03:15;10.50;99.90
15930;DHT22;8064;51.142;4.780;2023-12-22T02:05:42;10.50;99.90
15930;DHT22;8064;51.142;4.780;2023-12-22T02:08:10;10.50;99.90
15930;DHT22;8064;51.142;4.780;2023-12-22T02:10:36;10.50;99.90
15930;DHT22;8064;51.142;4.780;2023-12-22T02:13:03;10.50;99.90
15930;DHT22;8064;51.142;4.780;2023-12-22T02:15:29;10.50;99.90
15930;DHT22;8064;51.142;4.780;2023-12-22T02:18:02;10.50;99.90
15930;DHT22;8064;51.142;4.780;2023-12-22T02:20:30;10.50;99.90
15930;DHT22;8064;51.142;4.780;2023-12-22T02:22:57;10.50;99.90
15930;DHT22;8064;51.142;4.780;2023-12-22T02:25:22;10.40;99.90
15930;DHT22;8064;51.142;4.780;2023-12-22T02:27:50;10.40;99.90
15930;DHT22;8064;51.142;4.780;2023-12-22T02:30:24;10.40;99.90
15930;DHT22;8064;51.142;4.780;2023-12-22T02:32:56;10.40;99.90
15930;DHT22;8064;51.142;4.780;2023-12-22T02:35:26;10.50;99.90
15930;DHT22;8064;51.142;4.780;2023-12-22T02:37:53;10.50;99.90
15930;DHT22;8064;51.142;4.780;2023-12-22T02:40:20;10.50;99.90
15930;DHT22;8064;51.142;4.780;2023-12-22T02:42:46;10.50;99.90
15930;DHT22;8064;51.142;4.780;2023-12-22T02:45:14;10.50;99.90
15930;DHT22;8064;51.142;4.780;2023-12-22T02:47:42;10.50;99.90
15930;DHT22;8064;51.142;4.780;2023-12-22T02:50:08;10.50;99.90
15930;DHT22;8064;51.142;4.780;2023-12-22T02:52:34;10.50;99.90
15930;DHT22;8064;51.142;4.780;2023-12-22T02:55:01;10.50;99.90
15930;DHT22;8064;51.142;4.780;2023-12-22T02:57:27;10.50;99.90
15930;DHT22;8064;51.142;4.780;2023-12-22T02:59:53;10.50;99.90
15930;DHT22;8064;51.142;4.780;2023-12-22T03:02:19;10.50;99.90
15930;DHT22;8064;51.142;4.780;2023-12-22T03:04:44;10.50;99.90
15930;DHT22;8064;51.142;4.780;2023-12-22T03:07:12;10.50;99.90
15930;DHT22;8064;51.142;4.780;2023-12-22T03:09:38;10.40;99.90
15930;DHT22;8064;51.142;4.780;2023-12-22T03:12:05;10.40;99.90
15930;DHT22;8064;51.142;4.780;2023-12-22T03:14:31;10.40;99.90
15930;DHT22;8064;51.142;4.780;2023-12-22T03:16:59;10.40;99.90
15930;DHT22;8064;51.142;4.780;2023-12-22T03:19:25;10.40;99.90
15930;DHT22;8064;51.142;4.780;2023-12-22T03:21:51;10.40;99.90
15930;DHT22;8064;51.142;4.780;2023-12-22T03:24:17;10.40;99.90
15930;DHT22;8064;51.142;4.780;2023-12-22T03:26:46;10.40;99.90
15930;DHT22;8064;51.142;4.780;2023-12-22T03:29:12;10.40;99.90
15930;DHT22;8064;51.142;4.780;2023-12-22T03:31:37;10.40;99.90
15930;DHT22;8064;51.142;4.780;2023-12-22T03:34:03;10.40;99.90
15930;DHT22;8064;51.142;4.780;2023-12-22T03:36:29;10.40;99.90
15930;DHT22;8064;51.142;4.780;2023-12-22T03:38:55;10.40;99.90
15930;DHT22;8064;51.142;4.780;2023-12-22T03:41:20;10.40;99.90
15930;DHT22;8064;51.142;4.780;2023-12-22T03:43:46;10.40;99.90
15930;DHT22;8064;51.142;4.780;2023-12-22T03:46:12;10.40;99.90
15930;DHT22;8064;51.142;4.780;2023-12-22T03:48:37;10.40;99.90
15930;DHT22;8064;51.142;4.780;2023-12-22T03:51:03;10.40;99.90
15930;DHT22;8064;51.142;4.780;2023-12-22T03:53:29;10.40;99.90
15930;DHT22;8064;51.142;4.780;2023-12-22T03:55:55;10.40;99.90
15930;DHT22;8064;51.142;4.780;2023-12-22T03:58:21;10.40;99.90
15930;DHT22;8064;51.142;4.780;2023-12-22T04:00:47;10.40;99.90
15930;DHT22;8064;51.142;4.780;2023-12-22T04:03:13;10.40;99.90
15930;DHT22;8064;51.142;4.780;2023-12-22T04:05:39;10.40;99.90
15930;DHT22;8064;51.142;4.780;2023-12-22T04:08:05;10.40;99.90
15930;DHT22;8064;51.142;4.780;2023-12-22T04:10:32;10.40;99.90
15930;DHT22;8064;51.142;4.780;2023-12-22T04:12:57;10.40;99.90
15930;DHT22;8064;51.142;4.780;2023-12-22T04:15:23;10.40;99.90
15930;DHT22;8064;51.142;4.780;2023-12-22T04:17:49;10.40;99.90
15930;DHT22;8064;51.142;4.780;2023-12-22T04:20:15;10.40;99.90
15930;DHT22;8064;51.142;4.780;2023-12-22T04:22:41;10.40;99.90
15930;DHT22;8064;51.142;4.780;2023-12-22T04:25:08;10.40;99.90
15930;DHT22;8064;51.142;4.780;2023-12-22T04:27:34;10.30;99.90
15930;DHT22;8064;51.142;4.780;2023-12-22T04:30:00;10.40;99.90
15930;DHT22;8064;51.142;4.780;2023-12-22T04:32:26;10.40;99.90
15930;DHT22;8064;51.142;4.780;2023-12-22T04:34:52;10.40;99.90
15930;DHT22;8064;51.142;4.780;2023-12-22T04:37:18;10.40;99.90
15930;DHT22;8064;51.142;4.780;2023-12-22T04:39:43;10.40;99.90
15930;DHT22;8064;51.142;4.780;2023-12-22T04:42:09;10.40;99.90
15930;DHT22;8064;51.142;4.780;2023-12-22T04:44:35;10.40;99.90
15930;DHT22;8064;51.142;4.780;2023-12-22T04:47:01;10.40;99.90
15930;DHT22;8064;51.142;4.780;2023-12-22T04:49:27;10.40;99.90
15930;DHT22;8064;51.142;4.780;2023-12-22T04:51:52;10.40;99.90
15930;DHT22;8064;51.142;4.780;2023-12-22T04:54:18;10.40;99.90
15930;DHT22;8064;51.142;4.780;2023-12-22T04:56:44;10.40;99.90
15930;DHT22;8064;51.142;4.780;2023-12-22T04:59:09;10.40;99.90
15930;DHT22;8064;51.142;4.780;2023-12-22T05:01:35;10.40;99.90
15930;DHT22;8064;51.142;4.780;2023-12-22T05:04:01;10.40;99.90
15930;DHT22;8064;51.142;4.780;2023-12-22T05:06:27;10.40;99.90
15930;DHT22;8064;51.142;4.780;2023-12-22T05:08:55;10.40;99.90
15930;DHT22;8064;51.142;4.780;2023-12-22T05:11:22;10.40;99.90
15930;DHT22;8064;51.142;4.780;2023-12-22T05:13:48;10.40;99.90
15930;DHT22;8064;51.142;4.780;2023-12-22T05:16:14;10.40;99.90
15930;DHT22;8064;51.142;4.780;2023-12-22T05:18:40;10.40;99.90
15930;DHT22;8064;51.142;4.780;2023-12-22T05:21:05;10.40;99.90
15930;DHT22;8064;51.142;4.780;2023-12-22T05:23:31;10.40;99.90
15930;DHT22;8064;51.142;4.780;2023-12-22T05:25:58;10.40;99.90
15930;DHT22;8064;51.142;4.780;2023-12-22T05:28:24;10.40;99.90
15930;DHT22;8064;51.142;4.780;2023-12-22T05:30:49;10.40;99.90
15930;DHT22;8064;51.142;4.780;2023-12-22T05:33:15;10.40;99.90
15930;DHT22;8064;51.142;4.780;2023-12-22T05:35:41;10.40;99.90
15930;DHT22;8064;51.142;4.780;2023-12-22T05:38:07;10.40;99.90
15930;DHT22;8064;51.142;4.780;2023-12-22T05:40:33;10.50;99.90
15930;DHT22;8064;51.142;4.780;2023-12-22T05:42:59;10.50;99.90
15930;DHT22;8064;51.142;4.780;2023-12-22T05:45:24;10.50;99.90
15930;DHT22;8064;51.142;4.780;2023-12-22T05:47:50;10.40;99.90
15930;DHT22;8064;51.142;4.780;2023-12-22T05:50:17;10.50;99.90
15930;DHT22;8064;51.142;4.780;2023-12-22T05:52:43;10.50;99.90
15930;DHT22;8064;51.142;4.780;2023-12-22T05:55:10;10.50;99.90
15930;DHT22;8064;51.142;4.780;2023-12-22T05:57:36;10.50;99.90
15930;DHT22;8064;51.142;4.780;2023-12-22T06:00:03;10.50;99.90
15930;DHT22;8064;51.142;4.780;2023-12-22T06:02:33;10.50;99.90
15930;DHT22;8064;51.142;4.780;2023-12-22T06:04:59;10.50;99.90
15930;DHT22;8064;51.142;4.780;2023-12-22T06:07:25;10.50;99.90
15930;DHT22;8064;51.142;4.780;2023-12-22T06:09:52;10.60;99.90
15930;DHT22;8064;51.142;4.780;2023-12-22T06:12:18;10.60;99.90
15930;DHT22;8064;51.142;4.780;2023-12-22T06:14:43;10.60;99.90
15930;DHT22;8064;51.142;4.780;2023-12-22T06:17:09;10.60;99.90
15930;DHT22;8064;51.142;4.780;2023-12-22T06:19:36;10.60;99.90
15930;DHT22;8064;51.142;4.780;2023-12-22T06:22:01;10.60;99.90
15930;DHT22;8064;51.142;4.780;2023-12-22T06:24:27;10.60;99.90
15930;DHT22;8064;51.142;4.780;2023-12-22T06:26:53;10.60;99.90
15930;DHT22;8064;51.142;4.780;2023-12-22T06:29:19;10.60;99.90
15930;DHT22;8064;51.142;4.780;2023-12-22T06:31:45;10.60;99.90
15930;DHT22;8064;51.142;4.780;2023-12-22T06:34:16;10.60;99.90
15930;DHT22;8064;51.142;4.780;2023-12-22T06:36:42;10.60;99.90
15930;DHT22;8064;51.142;4.780;2023-12-22T06:39:08;10.60;99.90
15930;DHT22;8064;51.142;4.780;2023-12-22T06:41:34;10.60;99.90
15930;DHT22;8064;51.142;4.780;2023-12-22T06:44:00;10.60;99.90
15930;DHT22;8064;51.142;4.780;2023-12-22T06:46:27;10.60;99.90
15930;DHT22;8064;51.142;4.780;2023-12-22T06:48:55;10.60;99.90
15930;DHT22;8064;51.142;4.780;2023-12-22T06:51:22;10.60;99.90
15930;DHT22;8064;51.142;4.780;2023-12-22T06:53:49;10.70;99.90
15930;DHT22;8064;51.142;4.780;2023-12-22T06:56:16;10.70;99.90
15930;DHT22;8064;51.142;4.780;2023-12-22T06:58:42;10.70;99.90
15930;DHT22;8064;51.142;4.780;2023-12-22T07:01:08;10.70;99.90
15930;DHT22;8064;51.142;4.780;2023-12-22T07:03:34;10.70;99.90
15930;DHT22;8064;51.142;4.780;2023-12-22T07:06:00;10.80;99.90
15930;DHT22;8064;51.142;4.780;2023-12-22T07:08:25;10.80;99.90
15930;DHT22;8064;51.142;4.780;2023-12-22T07:10:51;10.80;99.90
15930;DHT22;8064;51.142;4.780;2023-12-22T07:13:17;10.80;99.90
15930;DHT22;8064;51.142;4.780;2023-12-22T07:15:42;10.80;99.90
15930;DHT22;8064;51.142;4.780;2023-12-22T07:18:08;10.80;99.90
15930;DHT22;8064;51.142;4.780;2023-12-22T07:20:34;10.80;99.90
15930;DHT22;8064;51.142;4.780;2023-12-22T07:23:00;10.80;99.90
15930;DHT22;8064;51.142;4.780;2023-12-22T07:25:25;10.80;99.90
15930;DHT22;8064;51.142;4.780;2023-12-22T07:27:52;10.80;99.90
15930;DHT22;8064;51.142;4.780;2023-12-22T07:30:19;10.80;99.90
15930;DHT22;8064;51.142;4.780;2023-12-22T07:32:49;10.80;99.90
15930;DHT22;8064;51.142;4.780;2023-12-22T07:35:21;10.80;99.90
15930;DHT22;8064;51.142;4.780;2023-12-22T07:37:49;10.70;99.90
15930;DHT22;8064;51.142;4.780;2023-12-22T07:40:18;10.70;99.90
15930;DHT22;8064;51.142;4.780;2023-12-22T07:42:47;10.70;99.90
15930;DHT22;8064;51.142;4.780;2023-12-22T07:45:13;10.70;99.90
15930;DHT22;8064;51.142;4.780;2023-12-22T07:47:41;10.70;99.90
15930;DHT22;8064;51.142;4.780;2023-12-22T07:50:11;10.60;99.90
15930;DHT22;8064;51.142;4.780;2023-12-22T07:52:37;10.60;99.90
15930;DHT22;8064;51.142;4.780;2023-12-22T07:55:06;10.60;99.90
15930;DHT22;8064;51.142;4.780;2023-12-22T07:57:33;10.60;99.90
15930;DHT22;8064;51.142;4.780;2023-12-22T07:59:59;10.60;99.90
15930;DHT22;8064;51.142;4.780;2023-12-22T08:02:24;10.50;99.90
15930;DHT22;8064;51.142;4.780;2023-12-22T08:04:50;10.50;99.90
15930;DHT22;8064;51.142;4.780;2023-12-22T08:07:16;10.50;99.90
15930;DHT22;8064;51.142;4.780;2023-12-22T08:09:42;10.50;99.90
15930;DHT22;8064;51.142;4.780;2023-12-22T08:12:08;10.50;99.90
15930;DHT22;8064;51.142;4.780;2023-12-22T08:14:34;10.50;99.90
15930;DHT22;8064;51.142;4.780;2023-12-22T08:16:59;10.50;99.90
15930;DHT22;8064;51.142;4.780;2023-12-22T08:19:25;10.40;99.90
15930;DHT22;8064;51.142;4.780;2023-12-22T08:21:53;10.40;99.90
15930;DHT22;8064;51.142;4.780;2023-12-22T08:24:20;10.40;99.90
15930;DHT22;8064;51.142;4.780;2023-12-22T08:26:46;10.30;99.90
15930;DHT22;8064;51.142;4.780;2023-12-22T08:29:11;10.30;99.90
15930;DHT22;8064;51.142;4.780;2023-12-22T08:31:37;10.30;99.90
15930;DHT22;8064;51.142;4.780;2023-12-22T08:34:03;10.30;99.90
15930;DHT22;8064;51.142;4.780;2023-12-22T08:36:29;10.30;99.90
15930;DHT22;8064;51.142;4.780;2023-12-22T08:38:54;10.20;99.90
15930;DHT22;8064;51.142;4.780;2023-12-22T08:41:20;10.20;99.90
15930;DHT22;8064;51.142;4.780;2023-12-22T08:43:46;10.20;99.90
15930;DHT22;8064;51.142;4.780;2023-12-22T08:46:12;10.20;99.90
15930;DHT22;8064;51.142;4.780;2023-12-22T08:48:38;10.10;99.90
15930;DHT22;8064;51.142;4.780;2023-12-22T08:51:04;10.10;99.90
15930;DHT22;8064;51.142;4.780;2023-12-22T08:53:30;10.10;99.90
15930;DHT22;8064;51.142;4.780;2023-12-22T08:56:00;10.10;99.90
15930;DHT22;8064;51.142;4.780;2023-12-22T08:58:26;10.10;99.90
15930;DHT22;8064;51.142;4.780;2023-12-22T09:00:55;10.10;99.90
15930;DHT22;8064;51.142;4.780;2023-12-22T09:03:21;10.10;99.90
15930;DHT22;8064;51.142;4.780;2023-12-22T09:05:49;10.10;99.90
15930;DHT22;8064;51.142;4.780;2023-12-22T09:08:20;10.10;99.90
15930;DHT22;8064;51.142;4.780;2023-12-22T09:10:50;10.20;99.90
15930;DHT22;8064;51.142;4.780;2023-12-22T09:13:16;10.20;99.90
15930;DHT22;8064;51.142;4.780;2023-12-22T09:15:42;10.30;99.90
15930;DHT22;8064;51.142;4.780;2023-12-22T09:18:07;10.30;99.90
15930;DHT22;8064;51.142;4.780;2023-12-22T09:20:33;10.40;99.90
15930;DHT22;8064;51.142;4.780;2023-12-22T09:22:59;10.40;99.90
15930;DHT22;8064;51.142;4.780;2023-12-22T09:25:25;10.50;99.90
15930;DHT22;8064;51.142;4.780;2023-12-22T09:27:51;10.50;99.90
15930;DHT22;8064;51.142;4.780;2023-12-22T09:30:17;10.60;99.90
15930;DHT22;8064;51.142;4.780;2023-12-22T09:32:43;10.60;99.90
15930;DHT22;8064;51.142;4.780;2023-12-22T09:35:09;10.70;99.90
15930;DHT22;8064;51.142;4.780;2023-12-22T09:37:35;10.70;99.90
15930;DHT22;8064;51.142;4.780;2023-12-22T09:40:00;10.80;99.90
15930;DHT22;8064;51.142;4.780;2023-12-22T09:42:26;10.80;99.90
15930;DHT22;8064;51.142;4.780;2023-12-22T09:44:53;10.80;99.90
15930;DHT22;8064;51.142;4.780;2023-12-22T09:47:22;10.90;99.90
15930;DHT22;8064;51.142;4.780;2023-12-22T09:49:48;10.90;99.90
15930;DHT22;8064;51.142;4.780;2023-12-22T09:52:16;10.90;99.90
15930;DHT22;8064;51.142;4.780;2023-12-22T09:54:43;10.90;99.90
15930;DHT22;8064;51.142;4.780;2023-12-22T09:57:10;11.00;99.90
15930;DHT22;8064;51.142;4.780;2023-12-22T09:59:37;11.00;99.90
15930;DHT22;8064;51.142;4.780;2023-12-22T10:02:04;11.00;99.90
15930;DHT22;8064;51.142;4.780;2023-12-22T10:04:31;11.10;99.90
15930;DHT22;8064;51.142;4.780;2023-12-22T10:06:58;11.10;99.90
15930;DHT22;8064;51.142;4.780;2023-12-22T10:09:26;11.10;99.90
15930;DHT22;8064;51.142;4.780;2023-12-22T10:11:52;11.20;99.90
15930;DHT22;8064;51.142;4.780;2023-12-22T10:14:20;11.40;99.90
15930;DHT22;8064;51.142;4.780;2023-12-22T10:16:52;11.40;99.90
15930;DHT22;8064;51.142;4.780;2023-12-22T10:19:19;11.50;99.90
15930;DHT22;8064;51.142;4.780;2023-12-22T10:21:45;11.50;99.90
15930;DHT22;8064;51.142;4.780;2023-12-22T10:27:04;11.60;99.90
15930;DHT22;8064;51.142;4.780;2023-12-22T10:29:30;11.60;99.90
15930;DHT22;8064;51.142;4.780;2023-12-22T10:31:56;11.50;99.90
15930;DHT22;8064;51.142;4.780;2023-12-22T10:34:21;11.60;99.90
15930;DHT22;8064;51.142;4.780;2023-12-22T10:36:47;11.60;99.90
15930;DHT22;8064;51.142;4.780;2023-12-22T10:39:13;11.60;99.90
15930;DHT22;8064;51.142;4.780;2023-12-22T10:41:39;11.60;99.90
15930;DHT22;8064;51.142;4.780;2023-12-22T10:44:05;11.60;99.90
15930;DHT22;8064;51.142;4.780;2023-12-22T10:46:34;11.60;99.90
15930;DHT22;8064;51.142;4.780;2023-12-22T10:49:02;11.60;99.90
15930;DHT22;8064;51.142;4.780;2023-12-22T10:51:29;11.60;99.90
15930;DHT22;8064;51.142;4.780;2023-12-22T10:53:58;11.60;99.90
15930;DHT22;8064;51.142;4.780;2023-12-22T10:56:25;11.60;99.90
15930;DHT22;8064;51.142;4.780;2023-12-22T10:58:52;11.60;99.90
15930;DHT22;8064;51.142;4.780;2023-12-22T11:01:21;11.60;99.90
15930;DHT22;8064;51.142;4.780;2023-12-22T11:03:51;11.70;99.90
15930;DHT22;8064;51.142;4.780;2023-12-22T11:06:17;11.70;99.90
15930;DHT22;8064;51.142;4.780;2023-12-22T11:08:44;11.70;99.90
15930;DHT22;8064;51.142;4.780;2023-12-22T11:11:20;11.70;99.90
15930;DHT22;8064;51.142;4.780;2023-12-22T11:13:50;11.70;99.90
15930;DHT22;8064;51.142;4.780;2023-12-22T11:16:17;11.70;99.90
15930;DHT22;8064;51.142;4.780;2023-12-22T11:18:44;11.70;99.90
15930;DHT22;8064;51.142;4.780;2023-12-22T11:21:10;11.70;99.90
15930;DHT22;8064;51.142;4.780;2023-12-22T11:23:38;11.70;99.90
15930;DHT22;8064;51.142;4.780;2023-12-22T11:26:05;11.70;99.90
15930;DHT22;8064;51.142;4.780;2023-12-22T11:28:32;11.70;99.90
15930;DHT22;8064;51.142;4.780;2023-12-22T11:30:59;11.70;99.90
15930;DHT22;8064;51.142;4.780;2023-12-22T11:33:28;11.80;99.90
15930;DHT22;8064;51.142;4.780;2023-12-22T11:35:56;11.80;99.90
15930;DHT22;8064;51.142;4.780;2023-12-22T11:38:22;11.80;99.90
15930;DHT22;8064;51.142;4.780;2023-12-22T11:40:50;11.80;99.90
15930;DHT22;8064;51.142;4.780;2023-12-22T11:43:18;11.80;99.90
15930;DHT22;8064;51.142;4.780;2023-12-22T11:45:44;11.90;99.90
15930;DHT22;8064;51.142;4.780;2023-12-22T11:48:11;11.90;99.90
15930;DHT22;8064;51.142;4.780;2023-12-22T11:50:37;11.90;99.90
15930;DHT22;8064;51.142;4.780;2023-12-22T11:53:19;11.90;99.90
15930;DHT22;8064;51.142;4.780;2023-12-22T11:56:04;11.90;99.90
15930;DHT22;8064;51.142;4.780;2023-12-22T12:01:18;11.90;99.90
15930;DHT22;8064;51.142;4.780;2023-12-22T12:03:50;11.90;99.90
15930;DHT22;8064;51.142;4.780;2023-12-22T12:08:53;12.00;99.90
15930;DHT22;8064;51.142;4.780;2023-12-22T12:11:20;12.00;99.90
15930;DHT22;8064;51.142;4.780;2023-12-22T12:13:47;12.00;99.90
15930;DHT22;8064;51.142;4.780;2023-12-22T12:16:13;12.00;99.90
15930;DHT22;8064;51.142;4.780;2023-12-22T12:18:40;12.00;99.90
15930;DHT22;8064;51.142;4.780;2023-12-22T12:21:08;12.00;99.90
15930;DHT22;8064;51.142;4.780;2023-12-22T12:23:34;12.00;99.90
15930;DHT22;8064;51.142;4.780;2023-12-22T12:26:00;12.00;99.90
15930;DHT22;8064;51.142;4.780;2023-12-22T12:28:33;12.10;99.90
15930;DHT22;8064;51.142;4.780;2023-12-22T12:31:04;12.10;99.90
15930;DHT22;8064;51.142;4.780;2023-12-22T12:33:30;12.10;99.90
15930;DHT22;8064;51.142;4.780;2023-12-22T12:35:58;12.10;99.90
15930;DHT22;8064;51.142;4.780;2023-12-22T12:38:42;12.10;99.90
15930;DHT22;8064;51.142;4.780;2023-12-22T12:41:10;12.10;99.90
15930;DHT22;8064;51.142;4.780;2023-12-22T12:43:42;12.10;99.90
15930;DHT22;8064;51.142;4.780;2023-12-22T12:46:09;12.00;99.90
15930;DHT22;8064;51.142;4.780;2023-12-22T12:48:35;12.10;99.90
15930;DHT22;8064;51.142;4.780;2023-12-22T12:51:07;12.00;99.90
15930;DHT22;8064;51.142;4.780;2023-12-22T12:53:33;12.10;99.90
15930;DHT22;8064;51.142;4.780;2023-12-22T12:56:00;12.00;99.90
15930;DHT22;8064;51.142;4.780;2023-12-22T12:58:28;12.00;99.90
15930;DHT22;8064;51.142;4.780;2023-12-22T13:01:06;12.00;99.90
15930;DHT22;8064;51.142;4.780;2023-12-22T13:03:31;12.00;99.90
15930;DHT22;8064;51.142;4.780;2023-12-22T13:06:08;12.00;99.90
15930;DHT22;8064;51.142;4.780;2023-12-22T13:08:33;12.00;99.90
15930;DHT22;8064;51.142;4.780;2023-12-22T13:11:00;12.00;99.90
15930;DHT22;8064;51.142;4.780;2023-12-22T13:13:27;12.00;99.90
15930;DHT22;8064;51.142;4.780;2023-12-22T13:15:53;12.00;99.90
15930;DHT22;8064;51.142;4.780;2023-12-22T13:18:18;12.00;99.90
15930;DHT22;8064;51.142;4.780;2023-12-22T13:20:44;12.00;99.90
15930;DHT22;8064;51.142;4.780;2023-12-22T13:23:10;12.00;99.90
15930;DHT22;8064;51.142;4.780;2023-12-22T13:25:41;12.00;99.90
15930;DHT22;8064;51.142;4.780;2023-12-22T13:28:07;12.00;99.90
15930;DHT22;8064;51.142;4.780;2023-12-22T13:30:37;12.00;99.90
15930;DHT22;8064;51.142;4.780;2023-12-22T13:33:06;12.00;99.90
15930;DHT22;8064;51.142;4.780;2023-12-22T13:35:33;12.00;99.90
15930;DHT22;8064;51.142;4.780;2023-12-22T13:38:05;12.00;99.90
15930;DHT22;8064;51.142;4.780;2023-12-22T13:40:31;12.00;99.90
15930;DHT22;8064;51.142;4.780;2023-12-22T13:42:57;12.00;99.90
15930;DHT22;8064;51.142;4.780;2023-12-22T13:45:24;12.00;99.90
15930;DHT22;8064;51.142;4.780;2023-12-22T13:47:50;12.00;99.90
15930;DHT22;8064;51.142;4.780;2023-12-22T13:50:17;12.00;99.90
15930;DHT22;8064;51.142;4.780;2023-12-22T13:52:44;12.00;99.90
15930;DHT22;8064;51.142;4.780;2023-12-22T13:55:11;12.00;99.90
15930;DHT22;8064;51.142;4.780;2023-12-22T13:57:37;12.00;99.90
15930;DHT22;8064;51.142;4.780;2023-12-22T14:00:24;12.00;99.90
15930;DHT22;8064;51.142;4.780;2023-12-22T14:02:52;12.00;99.90
15930;DHT22;8064;51.142;4.780;2023-12-22T14:05:19;12.00;99.90
15930;DHT22;8064;51.142;4.780;2023-12-22T14:07:44;12.00;99.90
15930;DHT22;8064;51.142;4.780;2023-12-22T14:10:11;12.00;99.90
15930;DHT22;8064;51.142;4.780;2023-12-22T14:12:37;12.00;99.90
15930;DHT22;8064;51.142;4.780;2023-12-22T14:15:09;12.00;99.90
15930;DHT22;8064;51.142;4.780;2023-12-22T14:17:35;12.00;99.90
15930;DHT22;8064;51.142;4.780;2023-12-22T14:20:01;12.00;99.90
15930;DHT22;8064;51.142;4.780;2023-12-22T14:22:27;12.00;99.90
15930;DHT22;8064;51.142;4.780;2023-12-22T14:24:53;12.00;99.90
15930;DHT22;8064;51.142;4.780;2023-12-22T14:27:19;12.00;99.90
15930;DHT22;8064;51.142;4.780;2023-12-22T14:29:48;12.00;99.90
15930;DHT22;8064;51.142;4.780;2023-12-22T14:32:14;12.00;99.90
15930;DHT22;8064;51.142;4.780;2023-12-22T14:34:45;12.00;99.90
15930;DHT22;8064;51.142;4.780;2023-12-22T14:37:11;12.00;99.90
15930;DHT22;8064;51.142;4.780;2023-12-22T14:39:37;12.00;99.90
15930;DHT22;8064;51.142;4.780;2023-12-22T14:42:03;12.00;99.90
15930;DHT22;8064;51.142;4.780;2023-12-22T14:44:29;12.00;99.90
15930;DHT22;8064;51.142;4.780;2023-12-22T14:46:54;12.00;99.90
15930;DHT22;8064;51.142;4.780;2023-12-22T14:49:21;12.00;99.90
15930;DHT22;8064;51.142;4.780;2023-12-22T14:51:49;12.00;99.90
15930;DHT22;8064;51.142;4.780;2023-12-22T14:54:17;12.00;99.90
15930;DHT22;8064;51.142;4.780;2023-12-22T14:56:43;12.00;99.90
15930;DHT22;8064;51.142;4.780;2023-12-22T14:59:10;12.00;99.90
15930;DHT22;8064;51.142;4.780;2023-12-22T15:01:36;12.00;99.90
15930;DHT22;8064;51.142;4.780;2023-12-22T15:04:03;12.10;99.90
15930;DHT22;8064;51.142;4.780;2023-12-22T15:06:29;12.10;99.90
15930;DHT22;8064;51.142;4.780;2023-12-22T15:08:55;12.10;99.90
15930;DHT22;8064;51.142;4.780;2023-12-22T15:11:21;12.10;99.90
15930;DHT22;8064;51.142;4.780;2023-12-22T15:13:47;12.10;99.90
15930;DHT22;8064;51.142;4.780;2023-12-22T15:16:12;12.10;99.90
15930;DHT22;8064;51.142;4.780;2023-12-22T15:18:38;12.10;99.90
15930;DHT22;8064;51.142;4.780;2023-12-22T15:21:04;12.10;99.90
15930;DHT22;8064;51.142;4.780;2023-12-22T15:23:30;12.10;99.90
15930;DHT22;8064;51.142;4.780;2023-12-22T15:25:56;12.10;99.90
15930;DHT22;8064;51.142;4.780;2023-12-22T15:28:22;12.10;99.90
15930;DHT22;8064;51.142;4.780;2023-12-22T15:30:48;12.10;99.90
15930;DHT22;8064;51.142;4.780;2023-12-22T15:33:14;12.10;99.90
15930;DHT22;8064;51.142;4.780;2023-12-22T15:35:40;12.10;99.90
15930;DHT22;8064;51.142;4.780;2023-12-22T15:38:05;12.10;99.90
15930;DHT22;8064;51.142;4.780;2023-12-22T15:40:31;12.10;99.90
15930;DHT22;8064;51.142;4.780;2023-12-22T15:42:57;12.10;99.90
15930;DHT22;8064;51.142;4.780;2023-12-22T15:45:23;12.10;99.90
15930;DHT22;8064;51.142;4.780;2023-12-22T15:47:48;12.10;99.90
15930;DHT22;8064;51.142;4.780;2023-12-22T15:50:14;12.10;99.90